地図

経路データ

SID SEASON NUMBER BASIN SUBBASIN NAME ISO_TIME NATURE LAT LON WMO_WIND WMO_PRES WMO_AGENCY TRACK_TYPE DIST2LAND LANDFALL IFLAG USA_AGENCY USA_ATCF_ID USA_LAT USA_LON USA_RECORD USA_STATUS USA_WIND USA_PRES USA_SSHS USA_R34_NE USA_R34_SE USA_R34_SW USA_R34_NW USA_R50_NE USA_R50_SE USA_R50_SW USA_R50_NW USA_R64_NE USA_R64_SE USA_R64_SW USA_R64_NW USA_POCI USA_ROCI USA_RMW USA_EYE TOKYO_LAT TOKYO_LON TOKYO_GRADE TOKYO_WIND TOKYO_PRES TOKYO_R50_DIR TOKYO_R50_LONG TOKYO_R50_SHORT TOKYO_R30_DIR TOKYO_R30_LONG TOKYO_R30_SHORT TOKYO_LAND CMA_LAT CMA_LON CMA_CAT CMA_WIND CMA_PRES HKO_LAT HKO_LON HKO_CAT HKO_WIND HKO_PRES NEWDELHI_LAT NEWDELHI_LON NEWDELHI_GRADE NEWDELHI_WIND NEWDELHI_PRES NEWDELHI_CI NEWDELHI_DP NEWDELHI_POCI REUNION_LAT REUNION_LON REUNION_TYPE REUNION_WIND REUNION_PRES REUNION_TNUM REUNION_CI REUNION_RMW REUNION_R34_NE REUNION_R34_SE REUNION_R34_SW REUNION_R34_NW REUNION_R50_NE REUNION_R50_SE REUNION_R50_SW REUNION_R50_NW REUNION_R64_NE REUNION_R64_SE REUNION_R64_SW REUNION_R64_NW BOM_LAT BOM_LON BOM_TYPE BOM_WIND BOM_PRES BOM_TNUM BOM_CI BOM_RMW BOM_R34_NE BOM_R34_SE BOM_R34_SW BOM_R34_NW BOM_R50_NE BOM_R50_SE BOM_R50_SW BOM_R50_NW BOM_R64_NE BOM_R64_SE BOM_R64_SW BOM_R64_NW BOM_ROCI BOM_POCI BOM_EYE BOM_POS_METHOD BOM_PRES_METHOD NADI_LAT NADI_LON NADI_CAT NADI_WIND NADI_PRES WELLINGTON_LAT WELLINGTON_LON WELLINGTON_WIND WELLINGTON_PRES DS824_LAT DS824_LON DS824_STAGE DS824_WIND DS824_PRES TD9636_LAT TD9636_LON TD9636_STAGE TD9636_WIND TD9636_PRES TD9635_LAT TD9635_LON TD9635_WIND TD9635_PRES TD9635_ROCI NEUMANN_LAT NEUMANN_LON NEUMANN_CLASS NEUMANN_WIND NEUMANN_PRES MLC_LAT MLC_LON MLC_CLASS MLC_WIND MLC_PRES USA_GUST BOM_GUST BOM_GUST_PER REUNION_GUST REUNION_GUST_PER USA_SEAHGT USA_SEARAD_NE USA_SEARAD_SE USA_SEARAD_SW USA_SEARAD_NW STORM_SPEED STORM_DIR
1984250N17256 1984 75 EP MM MARIE 1984-09-05 12:00:00 TS 16.8000 -104.400 30 hurdat_epa main 193 189 O_________O___ hurdat_epa EP141984 16.8000 -104.400 TD 30 -1 16.8000 -104.400 1 30 10 294
1984250N17256 1984 75 EP MM MARIE 1984-09-05 15:00:00 TS 16.9964 -104.851 main 207 207 P_________P___ EP141984 17.0004 -104.870 TD 37 0 16.9847 -104.795 1 35 9 295
1984250N17256 1984 75 EP MM MARIE 1984-09-05 18:00:00 TS 17.1938 -105.276 45 hurdat_epa main 226 218 O_________P___ hurdat_epa EP141984 17.2000 -105.300 TS 45 0 17.1753 -105.202 1 40 9 297
1984250N17256 1984 75 EP MM MARIE 1984-09-05 21:00:00 TS 17.3943 -105.667 main 222 217 P_________P___ EP141984 17.3997 -105.678 TS 47 0 17.3783 -105.633 1 45 9 297
1984250N17256 1984 75 EP MM MARIE 1984-09-06 00:00:00 TS 17.6000 -106.100 50 hurdat_epa main 225 223 O_________O___ hurdat_epa EP141984 17.6000 -106.100 TS 50 0 17.6000 -106.100 2 50 10 293
1984250N17256 1984 75 EP MM MARIE 1984-09-06 03:00:00 TS 17.7946 -106.666 main 253 253 P_________P___ EP141984 17.7777 -106.685 TS 52 0 17.8452 -106.610 2 52 12 291
1984250N17256 1984 75 EP MM MARIE 1984-09-06 06:00:00 TS 18.0281 -107.264 55 hurdat_epa main 283 276 O_________P___ hurdat_epa EP141984 18.0000 -107.300 TS 55 0 18.1124 -107.155 2 55 12 298
1984250N17256 1984 75 EP MM MARIE 1984-09-06 09:00:00 TS 18.3505 -107.781 main 300 300 P_________P___ EP141984 18.3346 -107.800 TS 57 0 18.3983 -107.723 2 57 12 304
1984250N17256 1984 75 EP MM MARIE 1984-09-06 12:00:00 TS 18.7000 -108.300 60 hurdat_epa main 327 327 O_________O___ hurdat_epa EP141984 18.7000 -108.300 TS 60 0 18.7000 -108.300 2 60 12 302
1984250N17256 1984 75 EP MM MARIE 1984-09-06 15:00:00 TS 19.0007 -108.893 main 369 369 P_________P___ EP141984 19.0000 -108.893 TS 60 0 19.0026 -108.892 2 61 13 298
1984250N17256 1984 75 EP MM MARIE 1984-09-06 18:00:00 TS 19.3050 -109.497 60 hurdat_epa main 403 369 O_________P___ hurdat_epa EP141984 19.3000 -109.500 TS 60 0 19.3202 -109.488 2 62 13 300
1984250N17256 1984 75 EP MM MARIE 1984-09-06 21:00:00 TS 19.6393 -110.065 main 369 328 P_________P___ EP141984 19.6348 -110.065 TS 62 0 19.6527 -110.064 2 63 13 304
1984250N17256 1984 75 EP MM MARIE 1984-09-07 00:00:00 TS 20.0000 -110.600 65 hurdat_epa main 330 301 O_________O___ hurdat_epa EP141984 20.0000 -110.600 HU 65 1 20.0000 -110.600 3 65 12 307
1984250N17256 1984 75 EP MM MARIE 1984-09-07 03:00:00 TS 20.3859 -111.122 main 301 287 P_________P___ EP141984 20.4000 -111.130 HU 70 1 20.3439 -111.097 3 67 12 310
1984250N17256 1984 75 EP MM MARIE 1984-09-07 06:00:00 TS 20.7761 -111.587 75 hurdat_epa main 287 280 O_________P___ hurdat_epa EP141984 20.8000 -111.600 HU 75 1 20.7045 -111.548 3 70 11 313
1984250N17256 1984 75 EP MM MARIE 1984-09-07 09:00:00 TS 21.1287 -111.973 main 288 280 P_________P___ EP141984 21.1423 -111.980 HU 75 1 21.0879 -111.950 3 72 10 317
1984250N17256 1984 75 EP MM MARIE 1984-09-07 12:00:00 TS 21.5000 -112.300 75 hurdat_epa main 283 280 O_________O___ hurdat_epa EP141984 21.5000 -112.300 HU 75 1 21.5000 -112.300 4 75 10 324
1984250N17256 1984 75 EP MM MARIE 1984-09-07 15:00:00 TS 21.9350 -112.610 main 287 254 P_________P___ EP141984 21.9275 -112.623 HU 75 1 21.9575 -112.573 4 76 11 330
1984250N17256 1984 75 EP MM MARIE 1984-09-07 18:00:00 TS 22.4103 -112.876 75 hurdat_epa main 259 222 O_________P___ hurdat_epa EP141984 22.4000 -112.900 HU 75 1 22.4412 -112.802 4 77 11 336
1984250N17256 1984 75 EP MM MARIE 1984-09-07 21:00:00 TS 22.9072 -113.083 main 222 189 P_________P___ EP141984 22.8998 -113.100 HU 77 1 22.9293 -113.030 4 78 11 338
1984250N17256 1984 75 EP MM MARIE 1984-09-08 00:00:00 TS 23.4000 -113.300 80 hurdat_epa main 189 172 O_________O___ hurdat_epa EP141984 23.4000 -113.300 HU 80 1 23.4000 -113.300 4 80 11 334
1984250N17256 1984 75 EP MM MARIE 1984-09-08 03:00:00 TS 23.8556 -113.585 main 173 173 P_________P___ EP141984 23.8722 -113.548 HU 80 1 23.8059 -113.695 4 78 11 325
1984250N17256 1984 75 EP MM MARIE 1984-09-08 06:00:00 TS 24.2733 -113.959 80 hurdat_epa main 190 190 O_________P___ hurdat_epa EP141984 24.3000 -113.900 HU 80 1 24.1933 -114.135 4 77 11 314
1984250N17256 1984 75 EP MM MARIE 1984-09-08 09:00:00 TS 24.6337 -114.466 main 233 230 P_________P___ EP141984 24.6503 -114.428 HU 77 1 24.5840 -114.583 4 76 12 308
1984250N17256 1984 75 EP MM MARIE 1984-09-08 12:00:00 TS 25.0000 -115.000 75 hurdat_epa main 235 224 O_________O___ hurdat_epa EP141984 25.0000 -115.000 HU 75 1 25.0000 -115.000 4 75 12 312
1984250N17256 1984 75 EP MM MARIE 1984-09-08 15:00:00 TS 25.4366 -115.461 main 228 201 P_________P___ EP141984 25.4200 -115.510 HU 72 1 25.4865 -115.313 4 73 12 321
1984250N17256 1984 75 EP MM MARIE 1984-09-08 18:00:00 TS 25.9246 -115.824 70 hurdat_epa main 201 175 O_________P___ hurdat_epa EP141984 25.9000 -115.900 HU 70 1 25.9986 -115.594 4 72 11 334
1984250N17256 1984 75 EP MM MARIE 1984-09-08 21:00:00 TS 26.4594 -116.014 main 166 140 P_________P___ EP141984 26.4421 -116.059 HU 70 1 26.5115 -115.879 4 71 11 343
1984250N17256 1984 75 EP MM MARIE 1984-09-09 00:00:00 TS 27.0000 -116.200 70 hurdat_epa main 141 135 O_________O___ hurdat_epa EP141984 27.0000 -116.200 HU 70 1 27.0000 -116.200 4 70 12 335
1984250N17256 1984 75 EP MM MARIE 1984-09-09 03:00:00 TS 27.5195 -116.564 main 159 157 P_________P___ EP141984 27.5375 -116.547 HU 67 1 27.4656 -116.614 4 66 12 323
1984250N17256 1984 75 EP MM MARIE 1984-09-09 06:00:00 TS 27.9745 -117.017 65 hurdat_epa main 197 197 O_________P___ hurdat_epa EP141984 28.0000 -117.000 HU 65 1 27.8979 -117.069 4 62 12 314
1984250N17256 1984 75 EP MM MARIE 1984-09-09 09:00:00 TS 28.3290 -117.499 main 242 241 P_________P___ EP141984 28.3450 -117.485 HU 60 0 28.2812 -117.539 4 58 11 306
1984250N17256 1984 75 EP MM MARIE 1984-09-09 12:00:00 TS 28.6000 -118.000 55 hurdat_epa main 257 257 O_________O___ hurdat_epa EP141984 28.6000 -118.000 TS 55 0 28.6000 -118.000 2 55 10 299
1984250N17256 1984 75 EP MM MARIE 1984-09-09 15:00:00 TS 28.8248 -118.511 main 288 288 P_________P___ EP141984 28.8226 -118.530 TS 50 0 28.8316 -118.452 2 51 9 295
1984250N17256 1984 75 EP MM MARIE 1984-09-09 18:00:00 TS 29.0007 -118.971 45 hurdat_epa main 325 325 O_________P___ hurdat_epa EP141984 29.0000 -119.000 TS 45 0 29.0026 -118.884 2 47 8 294
1984250N17256 1984 75 EP MM MARIE 1984-09-09 21:00:00 TS 29.1435 -119.327 main 349 345 P_________P___ EP141984 29.1423 -119.345 TS 42 0 29.1473 -119.274 2 43 6 299
1984250N17256 1984 75 EP MM MARIE 1984-09-10 00:00:00 TS 29.3000 -119.600 40 hurdat_epa main 367 367 O_________O___ hurdat_epa EP141984 29.3000 -119.600 TS 40 0 29.3000 -119.600 2 40 6 312
1984250N17256 1984 75 EP MM MARIE 1984-09-10 03:00:00 TS 29.5404 -119.831 main 375 370 P_________P___ EP141984 29.5424 -119.822 TS 37 0 29.5344 -119.856 2 37 6 324
1984250N17256 1984 75 EP MM MARIE 1984-09-10 06:00:00 TS 29.7948 -120.012 35 hurdat_epa main 373 370 O_________P___ hurdat_epa EP141984 29.8000 -120.000 TS 35 0 29.7793 -120.048 2 35 6 328
1984250N17256 1984 75 EP MM MARIE 1984-09-10 09:00:00 TS 30.0193 -120.171 main 378 373 P_________P___ EP141984 30.0225 -120.165 TS 32 -1 30.0096 -120.190 2 32 5 328
1984250N17256 1984 75 EP MM MARIE 1984-09-10 12:00:00 TS 30.2000 -120.300 30 hurdat_epa main 376 372 O_________O___ hurdat_epa EP141984 30.2000 -120.300 TD 30 -1 30.2000 -120.300 1 30 4 326
1984250N17256 1984 75 EP MM MARIE 1984-09-10 15:00:00 TS 30.3249 -120.409 main 380 376 P_________P___ EP141984 30.3225 -120.415 TD 27 -1 30.3321 -120.390 1 27 3 320
1984250N17256 1984 75 EP MM MARIE 1984-09-10 18:00:00 TS 30.4038 -120.492 25 hurdat_epa main 385 380 O_________P___ hurdat_epa EP141984 30.4000 -120.500 TD 25 -1 30.4153 -120.468 1 25 2 317
1984250N17256 1984 75 EP MM MARIE 1984-09-10 21:00:00 TS 30.4577 -120.552 main 388 388 P_________P___ EP141984 30.4550 -120.557 TD 22 -1 30.4658 -120.536 1 22 1 315
1984250N17256 1984 75 EP MM MARIE 1984-09-11 00:00:00 TS 30.5000 -120.600 20 hurdat_epa main 388 O_________O___ hurdat_epa EP141984 30.5000 -120.600 TD 20 -1 30.5000 -120.600 1 20 1 319

IBTrACS Databaseについて

本データベースは、米国NOAAが公開する1842年以降の世界の熱帯低気圧のベストトラックデータアーカイブInternational Best Track Archive for Climate Stewardship (IBTrACS)を、ウェブで閲覧しやすい形式に変換したものです。

最終更新日:2021-12-01